KTHA/THA METAR and TAF weather

Enter ICAO airport designator
Station Type Date Time Source
KTHA METAR 2020/07/12 01:55 UTC NOAA

KTHA 120155Z AUTO 00000KT 10SM CLR 24/20 A2994 RMK A01


Station Type Date Time Source
KTHA Decoded METAR 2020/07/12 01:55 UTC NOAA

Station name not available
Jul 11, 2020 - 09:55 PM EDT / 2020.07.12 0155 UTC
Wind: Calm:0
Visibility: 10 mile(s):0
Sky conditions: clear
Temperature: 75 F (24 C)
Dew Point: 68 F (20 C)
Relative Humidity: 78%
Pressure (altimeter): 29.94 in. Hg (1013 hPa)
ob: KTHA 120155Z AUTO 00000KT 10SM CLR 24/20 A2994 RMK A01
cycle: 2

Station Type Date Time Source
KTHA TAF UTC NOAA

Error!

Example: see airport list